Bristol, South Dakota
Current Conditions -  °F | °C
As of 3:53 PM on Sunday 21 Dec 2014 (Local Time) from KABR Reporting Station
Overcast Overcast  
Wind Chill: 25°   Ceiling: 800
Heat Index: 34°   Visibility: 10mi
Dew Point: 30°   Wind: 13mph
Humidity: 85%   Direction: 160°SSE
Pressure: 29.52"   Gusts: NA
Location:  45.34°N, 97.75°W
Report Text: KABR 212153Z AUTO 16011KT 10SM OVC008 01/M01 A2952 RMK AO2 SLP009 T00111011
Loading
Personal Weather Stations






























Interactive Weather Map New forecast layout! Learn more

10-Day Weather Forecast

Advertisements
Track Severe Weather on mobile